Time;durP1;ratioP1;P1;durP2;ratioP2;P2;SDS_P1;SDS_P2;PMS_P1;PMS_P2;Temp;Humidity;BMP_temperature;BMP_pressure;BME280_temperature;BME280_humidity;BME280_pressure;Samples;Min_cycle;Max_cycle;Signal;HPM_P1;HPM_P2
2022/11/28 00:00:05;;;;;;;18.07;8.60;;;;;;;-141.97;68.40;47692.06;4982935;28;20178;-87
2022/11/28 00:02:30;;;;;;;18.10;9.10;;;;;;;-141.97;69.20;47620.94;5001026;28;20231;-87
2022/11/28 00:04:56;;;;;;;18.27;9.20;;;;;;;-141.97;70.71;47634.41;4996689;28;20337;-87
2022/11/28 00:07:21;;;;;;;18.70;9.00;;;;;;;-141.97;69.76;47663.22;4998302;28;20755;-88
2022/11/28 00:09:46;;;;;;;18.33;8.70;;;;;;;-141.97;69.08;47697.84;4997796;28;20178;-87
2022/11/28 00:12:12;;;;;;;19.57;9.47;;;;;;;-141.97;68.93;47690.16;4998362;28;20188;-86
2022/11/28 00:14:38;;;;;;;22.97;11.60;;;;;;;-141.97;70.34;47686.31;4981392;28;20167;-88
2022/11/28 00:17:03;;;;;;;23.27;11.00;;;;;;;-141.97;71.52;47653.63;4981331;28;20621;-87
2022/11/28 00:19:29;;;;;;;29.53;14.07;;;;;;;-141.97;70.13;47619.03;4995572;28;20159;-88
2022/11/28 00:21:54;;;;;;;22.43;10.60;;;;;;;-141.97;71.54;47657.47;5000428;28;20639;-88
2022/11/28 00:24:19;;;;;;;22.53;10.40;;;;;;;-141.97;72.93;47799.72;4976987;28;20260;-88
2022/11/28 00:26:45;;;;;;;21.47;10.30;;;;;;;-141.97;73.99;47645.94;4994466;28;20176;-87
2022/11/28 00:29:10;;;;;;;25.40;11.77;;;;;;;-141.97;75.78;47669.00;4994237;28;20555;-86
2022/11/28 00:31:41;;;;;;;22.33;10.63;;;;;;;-141.97;76.06;47770.88;4994115;28;20234;-86
2022/11/28 00:34:08;;;;;;;20.47;9.83;;;;;;;-141.97;75.43;47613.25;4976487;28;20183;-87
2022/11/28 00:36:33;;;;;;;22.67;10.50;;;;;;;-141.97;76.36;47765.09;4993884;28;20418;-86
2022/11/28 00:38:59;;;;;;;21.37;10.40;;;;;;;-141.97;76.38;47634.41;4976202;28;20509;-87
2022/11/28 00:41:29;;;;;;;20.53;9.83;;;;;;;-141.97;75.85;47792.03;5002747;28;20187;-87
2022/11/28 00:43:55;;;;;;;22.57;10.40;;;;;;;-141.97;75.96;47726.66;4995090;28;20179;-87
2022/11/28 00:46:22;;;;;;;23.70;10.40;;;;;;;-141.97;76.84;47726.66;4994298;28;20506;-86
2022/11/28 00:48:48;;;;;;;22.50;10.30;;;;;;;-141.97;77.24;47722.81;4993783;28;20671;-86
2022/11/28 00:51:22;;;;;;;23.57;11.00;;;;;;;-141.97;77.13;47676.69;4976120;28;20504;-86
2022/11/28 00:53:50;;;;;;;23.00;10.50;;;;;;;-141.97;77.44;47665.16;4993699;28;20168;-87
2022/11/28 00:56:18;;;;;;;19.53;10.33;;;;;;;-141.97;76.98;47676.69;4976188;28;20989;-87
2022/11/28 00:58:44;;;;;;;20.60;10.10;;;;;;;-141.97;77.58;47792.03;4976349;28;20206;-86
2022/11/28 01:01:16;;;;;;;18.57;9.53;;;;;;;-141.97;77.28;47699.75;4993852;28;20810;-86
2022/11/28 01:03:43;;;;;;;18.00;8.90;;;;;;;-141.97;77.41;47686.31;4997486;28;20167;-86
2022/11/28 01:06:10;;;;;;;20.97;9.67;;;;;;;-141.97;78.41;47644.00;4999803;28;20414;-86
2022/11/28 01:08:36;;;;;;;22.20;10.27;;;;;;;-141.97;78.77;47718.97;4994436;28;20414;-87
2022/11/28 01:11:03;;;;;;;22.83;10.30;;;;;;;-141.97;78.87;47705.53;4993520;28;20454;-87
2022/11/28 01:13:28;;;;;;;20.30;9.13;;;;;;;-141.97;77.20;47667.06;4992148;28;20648;-87
2022/11/28 01:15:54;;;;;;;20.63;8.73;;;;;;;-141.97;77.52;47680.53;4991879;28;20409;-86
2022/11/28 01:18:19;;;;;;;18.87;9.17;;;;;;;-141.97;77.70;47799.72;4992904;28;20167;-87
2022/11/28 01:20:45;;;;;;;16.17;8.70;;;;;;;-141.97;77.45;47795.88;4958428;28;20279;-87
2022/11/28 01:23:10;;;;;;;17.83;8.40;;;;;;;-141.97;77.94;47649.78;4973746;28;20272;-87
2022/11/28 01:25:36;;;;;;;17.47;8.53;;;;;;;-141.97;78.81;47745.88;4973440;28;20160;-87
2022/11/28 01:28:02;;;;;;;18.90;8.87;;;;;;;-141.97;79.00;47715.13;4973460;28;20168;-86
2022/11/28 01:30:27;;;;;;;18.83;9.23;;;;;;;-141.97;79.32;47788.19;4975378;28;20679;-87
2022/11/28 01:32:52;;;;;;;17.40;8.67;;;;;;;-141.97;79.75;47805.47;4993146;28;20226;-87
2022/11/28 01:35:18;;;;;;;18.00;9.03;;;;;;;-141.97;80.30;47645.94;4992815;28;20206;-87
2022/11/28 01:37:43;;;;;;;22.77;9.13;;;;;;;-141.97;80.91;47669.00;4992882;28;20168;-87
2022/11/28 01:40:10;;;;;;;19.03;8.93;;;;;;;-141.97;80.28;47638.25;4994359;28;20167;-87
2022/11/28 01:42:36;;;;;;;18.83;8.60;;;;;;;-141.97;80.39;47642.09;4992728;28;20648;-87
2022/11/28 01:45:15;;;;;;;20.77;9.27;;;;;;;-141.97;81.05;47701.69;4993001;28;20438;-86
2022/11/28 01:47:41;;;;;;;21.60;9.30;;;;;;;-141.97;81.28;47695.91;4992768;28;20190;-86
2022/11/28 01:50:08;;;;;;;21.00;9.27;;;;;;;-141.97;81.67;47661.31;4993217;28;20423;-86
2022/11/28 01:52:36;;;;;;;19.87;9.30;;;;;;;-141.97;81.46;47642.09;4992579;28;20196;-85
2022/11/28 01:55:02;;;;;;;21.17;9.80;;;;;;;-141.97;81.98;47705.53;5010931;28;20478;-86
2022/11/28 01:57:28;;;;;;;19.73;9.13;;;;;;;-141.97;81.96;47632.47;5010345;28;20410;-87
2022/11/28 02:00:08;;;;;;;21.47;9.70;;;;;;;-141.97;81.54;47665.16;5008440;28;20201;-87
2022/11/28 02:02:55;;;;;;;19.57;8.57;;;;;;;-141.97;81.65;47690.16;4992385;28;20170;-87
2022/11/28 02:05:21;;;;;;;18.40;8.20;;;;;;;-141.97;82.20;47730.50;4999781;28;20411;-86
2022/11/28 02:07:47;;;;;;;19.50;9.40;;;;;;;-141.97;82.86;47676.69;4993635;28;20410;-87
2022/11/28 02:10:22;;;;;;;18.27;8.50;;;;;;;-141.97;83.18;47697.84;5005218;28;20406;-87
2022/11/28 02:12:54;;;;;;;19.93;9.00;;;;;;;-141.97;83.89;47701.69;4992427;28;20512;-86
2022/11/28 02:15:42;;;;;;;21.27;9.80;;;;;;;-141.97;84.45;47701.69;4992914;28;20438;-86
2022/11/28 02:18:32;;;;;;;17.33;8.63;;;;;;;-141.97;84.78;47703.59;4913789;29;20501;-86
2022/11/28 02:21:17;;;;;;;17.63;9.00;;;;;;;-141.97;85.47;47657.47;4913761;29;20453;-87
2022/11/28 02:24:13;;;;;;;19.60;9.00;;;;;;;-141.97;86.28;47715.13;4913867;29;20429;-86
2022/11/28 02:26:56;;;;;;;19.93;9.70;;;;;;;-141.97;86.66;47718.97;4913764;29;20418;-87
2022/11/28 02:29:50;;;;;;;21.97;11.17;;;;;;;-141.97;87.36;47705.53;4916106;29;20434;-86
2022/11/28 02:32:30;;;;;;;33.80;13.80;;;;;;;-141.97;87.54;47711.28;4917342;29;20496;-86
2022/11/28 02:35:03;;;;;;;25.27;12.03;;;;;;;-141.97;87.48;47682.47;4917811;29;20422;-87
2022/11/28 02:37:56;;;;;;;20.03;9.87;;;;;;;-141.97;86.98;47680.53;4918124;29;20515;-86
2022/11/28 02:40:37;;;;;;;20.67;9.43;;;;;;;-141.97;86.82;47738.19;4923013;29;20417;-87
2022/11/28 02:43:15;;;;;;;20.23;9.97;;;;;;;-141.97;86.56;47661.31;4943646;29;20420;-87
2022/11/28 02:46:14;;;;;;;22.10;9.63;;;;;;;-141.97;87.01;47659.38;4934504;29;20962;-87
2022/11/28 02:48:42;;;;;;;19.87;9.63;;;;;;;-141.97;87.47;47684.38;4918989;29;20421;-87
2022/11/28 02:51:13;;;;;;;23.87;10.37;;;;;;;-141.97;87.52;47715.13;4918171;29;20456;-86
2022/11/28 02:53:42;;;;;;;23.57;11.23;;;;;;;-141.97;87.03;47665.16;4902696;29;20421;-87
2022/11/28 02:56:10;;;;;;;24.60;11.17;;;;;;;-141.97;86.09;47765.09;4972760;28;20865;-87
2022/11/28 02:58:35;;;;;;;55.70;23.60;;;;;;;-141.97;86.40;47724.75;4998147;28;20485;-87
2022/11/28 03:01:01;;;;;;;83.90;35.20;;;;;;;-141.97;85.82;47717.06;4982793;28;20520;-88
2022/11/28 03:03:32;;;;;;;64.43;26.40;;;;;;;-141.97;85.52;47690.16;4986174;28;20171;-87
2022/11/28 03:06:39;;;;;;;48.63;21.40;;;;;;;-141.97;84.72;47676.69;5011976;28;20195;-87
2022/11/28 03:09:23;;;;;;;23.83;11.17;;;;;;;-141.97;83.85;47649.78;4933204;29;20414;-86
2022/11/28 03:11:58;;;;;;;49.90;24.87;;;;;;;-141.97;83.97;47726.66;4941836;29;20504;-87
2022/11/28 03:14:45;;;;;;;21.37;10.43;;;;;;;-141.97;84.08;47684.38;4939773;29;20430;-86
2022/11/28 03:17:32;;;;;;;34.50;16.63;;;;;;;-141.97;84.45;47728.59;4935355;29;20449;-86
2022/11/28 03:20:01;;;;;;;65.37;30.10;;;;;;;-141.97;84.06;47707.44;4917843;29;20520;-86
2022/11/28 03:22:51;;;;;;;35.20;17.37;;;;;;;-141.97;83.75;47711.28;4916377;29;20407;-86
2022/11/28 03:25:16;;;;;;;28.67;13.47;;;;;;;-141.97;83.83;47734.34;4900383;29;20489;-86
2022/11/28 03:27:53;;;;;;;34.50;16.00;;;;;;;-141.97;83.97;47711.28;4916661;29;20798;-87
2022/11/28 03:30:42;;;;;;;21.73;10.00;;;;;;;-141.97;84.17;47788.19;4902409;29;20174;-87
2022/11/28 03:33:08;;;;;;;19.93;9.47;;;;;;;-141.97;84.32;47672.84;4919572;29;20519;-87
2022/11/28 03:35:48;;;;;;;20.13;10.03;;;;;;;-141.97;84.20;47692.06;4919507;29;20997;-86
2022/11/28 03:38:23;;;;;;;23.00;11.40;;;;;;;-141.97;84.23;47695.91;4918694;29;20402;-86
2022/11/28 03:40:53;;;;;;;29.70;15.20;;;;;;;-141.97;84.32;47695.91;4991709;28;20509;-87
2022/11/28 03:43:24;;;;;;;23.93;11.23;;;;;;;-141.97;84.40;47765.09;4996455;28;20418;-87
2022/11/28 03:45:55;;;;;;;24.90;10.97;;;;;;;-141.97;84.46;47695.91;4995719;28;20407;-87
2022/11/28 03:48:25;;;;;;;26.53;13.10;;;;;;;-141.97;84.38;47786.25;4996311;28;20402;-86
2022/11/28 03:50:58;;;;;;;22.00;10.20;;;;;;;-141.97;83.83;47717.06;5003793;28;20410;-87
2022/11/28 03:53:29;;;;;;;36.50;16.17;;;;;;;-141.97;83.84;47738.19;5014697;28;20411;-86
2022/11/28 03:56:10;;;;;;;22.07;10.27;;;;;;;-141.97;83.46;47749.72;4994972;28;20923;-87
2022/11/28 03:58:43;;;;;;;26.20;12.60;;;;;;;-141.97;83.49;47790.09;4994985;28;20429;-87
2022/11/28 04:02:03;;;;;;;22.57;11.80;;;;;;;-141.97;83.63;47701.69;4977908;28;20446;-87
2022/11/28 04:04:34;;;;;;;19.77;9.50;;;;;;;-141.97;83.50;47697.84;4905130;29;20418;-86
2022/11/28 04:07:28;;;;;;;18.47;9.37;;;;;;;-141.97;83.48;47711.28;4915568;29;20449;-86
2022/11/28 04:10:06;;;;;;;24.03;10.80;;;;;;;-141.97;83.84;47665.16;4915512;29;20403;-87
2022/11/28 04:12:47;;;;;;;25.73;10.93;;;;;;;-141.97;83.19;47676.69;4915534;29;20859;-87
2022/11/28 04:15:30;;;;;;;24.50;11.53;;;;;;;-141.97;83.46;47688.22;4915611;29;20410;-88
2022/11/28 04:18:04;;;;;;;22.67;10.40;;;;;;;-141.97;82.50;47715.13;4915346;29;20422;-87
2022/11/28 04:20:37;;;;;;;19.93;9.23;;;;;;;-141.97;80.82;47811.25;4915286;29;20417;-87
2022/11/28 04:23:11;;;;;;;19.27;8.90;;;;;;;-141.97;79.40;47626.72;4915572;29;20737;-87
2022/11/28 04:25:41;;;;;;;27.97;13.20;;;;;;;-141.97;79.97;47720.91;4915176;29;20541;-87
2022/11/28 04:28:14;;;;;;;24.90;12.90;;;;;;;-141.97;80.76;47809.31;4899245;29;20426;-87
2022/11/28 04:30:42;;;;;;;22.40;10.00;;;;;;;-141.97;80.64;47695.91;4899684;29;21001;-87
2022/11/28 04:33:11;;;;;;;21.57;10.20;;;;;;;-141.97;80.37;47811.25;4914994;29;20489;-87
2022/11/28 04:35:41;;;;;;;27.47;14.37;;;;;;;-141.97;81.12;47753.56;4915213;29;20422;-87
2022/11/28 04:38:08;;;;;;;71.47;31.40;;;;;;;-141.97;81.44;47749.72;4936715;28;21026;-86
2022/11/28 04:40:50;;;;;;;30.43;14.70;;;;;;;-141.97;81.42;47765.09;4974510;28;20408;-86
2022/11/28 04:43:22;;;;;;;33.03;16.40;;;;;;;-141.97;80.95;47669.00;4974595;28;20498;-87
2022/11/28 04:46:00;;;;;;;26.67;13.83;;;;;;;-141.97;82.84;47805.47;4973041;28;20415;-87
2022/11/28 04:48:26;;;;;;;29.97;14.80;;;;;;;-141.97;82.30;47624.78;4956877;28;20422;-86
2022/11/28 04:51:06;;;;;;;29.30;14.40;;;;;;;-141.97;82.41;47680.53;4956392;28;20419;-88
2022/11/28 04:53:42;;;;;;;30.80;15.37;;;;;;;-141.97;83.39;47805.47;4973118;28;20486;-87
2022/11/28 04:56:16;;;;;;;40.77;18.87;;;;;;;-141.97;84.86;47728.59;4956935;28;21001;-87
2022/11/28 04:58:47;;;;;;;63.27;27.07;;;;;;;-141.97;85.96;47546.00;4973942;28;20899;-88
2022/11/28 05:01:20;;;;;;;71.23;26.40;;;;;;;-141.97;85.88;47640.16;4957845;28;20426;-87
2022/11/28 05:03:45;;;;;;;61.13;24.30;;;;;;;-141.97;85.92;47740.13;4974634;28;20794;-86
2022/11/28 05:06:23;;;;;;;77.40;26.60;;;;;;;-141.97;85.99;47813.16;4974231;28;20430;-87
2022/11/28 05:08:48;;;;;;;44.30;19.03;;;;;;;-141.97;86.17;47699.75;4981676;28;20168;-88
2022/11/28 05:11:13;;;;;;;57.50;26.77;;;;;;;-141.97;87.27;47682.47;4981402;28;20439;-87
2022/11/28 05:13:39;;;;;;;43.60;20.80;;;;;;;-141.97;88.08;47690.16;4963974;28;20171;-86
2022/11/28 05:16:05;;;;;;;52.43;25.37;;;;;;;-141.97;89.04;47695.91;4981401;28;20172;-86
2022/11/28 05:18:30;;;;;;;58.47;27.00;;;;;;;-141.97;89.97;47782.41;4962383;28;20180;-87
2022/11/28 05:20:57;;;;;;;48.57;24.90;;;;;;;-141.97;91.34;47792.03;4973991;28;20171;-86
2022/11/28 05:23:23;;;;;;;39.87;19.70;;;;;;;-141.97;91.59;47826.63;4973836;28;20168;-86
2022/11/28 05:25:48;;;;;;;41.70;22.80;;;;;;;-141.97;92.49;47607.50;4974385;28;20882;-87
2022/11/28 05:28:14;;;;;;;44.00;23.10;;;;;;;-141.97;92.79;47792.03;4980467;28;20164;-86
2022/11/28 05:30:39;;;;;;;52.93;26.07;;;;;;;-141.97;92.42;47718.97;4978335;28;20200;-87
2022/11/28 05:33:04;;;;;;;41.77;21.57;;;;;;;-141.97;93.39;47680.53;4956214;28;20228;-87
2022/11/28 05:35:30;;;;;;;167.40;53.03;;;;;;;-141.97;93.83;47611.34;4973587;28;20621;-86
2022/11/28 05:37:55;;;;;;;178.60;56.50;;;;;;;-141.97;94.54;47651.69;4974035;28;20255;-86
2022/11/28 05:40:21;;;;;;;101.27;41.27;;;;;;;-141.97;95.19;47638.25;4973754;28;20179;-88
2022/11/28 05:42:46;;;;;;;100.53;42.20;;;;;;;-141.97;95.95;47551.75;4956603;28;20168;-86
2022/11/28 05:45:12;;;;;;;140.20;55.67;;;;;;;-141.97;96.56;47717.06;4960920;28;20218;-86
2022/11/28 05:47:37;;;;;;;48.53;21.87;;;;;;;-141.97;96.84;47713.22;4983639;28;20207;-87
2022/11/28 05:50:03;;;;;;;33.93;14.53;;;;;;;-141.97;97.46;47753.56;4992710;28;20159;-87
2022/11/28 05:52:31;;;;;;;137.40;54.77;;;;;;;-141.97;98.49;47743.97;4974948;28;20203;-86
2022/11/28 05:54:57;;;;;;;58.47;27.13;;;;;;;-141.97;99.23;47711.28;4992161;28;20483;-86
2022/11/28 05:57:22;;;;;;;283.43;159.70;;;;;;;-141.97;99.85;47703.59;4992354;28;20414;-86
2022/11/28 05:59:47;;;;;;;183.63;88.17;;;;;;;-141.97;100.00;47753.56;4993037;28;20298;-86
2022/11/28 06:02:13;;;;;;;96.20;44.47;;;;;;;-141.97;100.00;47597.88;4979666;28;20715;-87
2022/11/28 06:04:40;;;;;;;43.60;20.77;;;;;;;-141.97;100.00;47672.84;4992320;28;20641;-86
2022/11/28 06:07:06;;;;;;;81.40;35.07;;;;;;;-141.97;100.00;47649.78;4975073;28;20194;-86
2022/11/28 06:09:32;;;;;;;59.37;23.43;;;;;;;-141.97;100.00;47736.28;4975150;28;20417;-87
2022/11/28 06:11:57;;;;;;;129.07;46.77;;;;;;;-141.97;100.00;47705.53;4993365;28;20881;-87
2022/11/28 06:14:23;;;;;;;74.97;29.83;;;;;;;-141.97;100.00;47718.97;4992992;28;20677;-86
2022/11/28 06:16:48;;;;;;;44.97;20.60;;;;;;;-141.97;100.00;47818.94;4992907;28;20163;-88
2022/11/28 06:19:13;;;;;;;41.37;17.93;;;;;;;-141.97;100.00;47661.31;4974719;28;20281;-87
2022/11/28 06:21:39;;;;;;;44.13;19.50;;;;;;;-141.97;100.00;47669.00;4975081;28;20542;-87
2022/11/28 06:24:05;;;;;;;93.67;39.03;;;;;;;-141.97;100.00;47622.88;4991807;28;20163;-87
2022/11/28 06:26:30;;;;;;;36.50;16.80;;;;;;;-141.97;100.00;47743.97;4993739;28;20644;-87
2022/11/28 06:28:56;;;;;;;57.40;26.70;;;;;;;-141.97;100.00;47705.53;4977447;28;20643;-86
2022/11/28 06:31:23;;;;;;;62.07;27.07;;;;;;;-141.97;100.00;47695.91;4996739;28;20225;-87
2022/11/28 06:33:50;;;;;;;40.57;17.03;;;;;;;-141.97;100.00;47838.16;4998399;28;20178;-85
2022/11/28 06:36:17;;;;;;;68.00;28.30;;;;;;;-141.97;100.00;47786.25;4997961;28;20913;-86
2022/11/28 06:38:43;;;;;;;47.77;18.70;;;;;;;-141.97;100.00;47726.66;5009725;28;20438;-86
2022/11/28 06:41:11;;;;;;;34.57;14.30;;;;;;;-141.97;100.00;47661.31;5004296;28;20431;-86
2022/11/28 06:43:37;;;;;;;32.73;14.33;;;;;;;-141.97;100.00;47672.84;4974771;28;20185;-86
2022/11/28 06:46:03;;;;;;;53.90;25.10;;;;;;;-141.97;100.00;47674.78;4992108;28;20407;-86
2022/11/28 06:48:28;;;;;;;41.40;19.00;;;;;;;-141.97;100.00;47734.34;4974213;28;20441;-87
2022/11/28 06:51:02;;;;;;;40.63;19.73;;;;;;;-141.97;100.00;47797.78;4992311;28;20171;-87
2022/11/28 06:53:28;;;;;;;26.10;11.00;;;;;;;-141.97;100.00;47584.44;4992778;28;20634;-84
2022/11/28 06:55:53;;;;;;;29.93;13.60;;;;;;;-141.97;100.00;47734.34;4992375;28;20414;-86
2022/11/28 06:58:19;;;;;;;30.67;14.97;;;;;;;-141.97;100.00;47707.44;4990892;28;20201;-86
2022/11/28 07:00:44;;;;;;;34.90;13.87;;;;;;;-141.97;100.00;47699.75;4991612;28;20167;-85
2022/11/28 07:03:11;;;;;;;38.00;18.17;;;;;;;-141.97;100.00;47517.16;4991967;28;20234;-86
2022/11/28 07:05:37;;;;;;;33.80;16.47;;;;;;;-141.97;100.00;47753.56;4974176;28;20183;-88
2022/11/28 07:08:03;;;;;;;56.13;23.97;;;;;;;-141.97;100.00;47715.13;4973489;28;20487;-88
2022/11/28 07:10:29;;;;;;;72.87;28.23;;;;;;;-141.97;100.00;47636.31;4991022;28;20183;-86
2022/11/28 07:12:59;;;;;;;52.70;23.30;;;;;;;-141.97;100.00;47811.25;4991803;28;20470;-85
2022/11/28 07:15:25;;;;;;;48.33;16.87;;;;;;;-141.97;100.00;47799.72;4993641;28;20175;-86
2022/11/28 07:17:54;;;;;;;55.07;22.30;;;;;;;-141.97;100.00;47736.28;4992785;28;20418;-86
2022/11/28 07:20:23;;;;;;;48.70;17.97;;;;;;;-141.97;100.00;47811.25;4976901;28;20415;-87
2022/11/28 07:22:48;;;;;;;96.00;26.73;;;;;;;-141.97;100.00;47742.03;4994381;28;20468;-87
2022/11/28 07:25:14;;;;;;;128.87;37.07;;;;;;;-141.97;100.00;47753.56;4995243;28;20508;-87
2022/11/28 07:27:41;;;;;;;44.90;17.30;;;;;;;-141.97;100.00;47842.00;4977339;28;20180;-88
2022/11/28 07:30:07;;;;;;;38.70;15.87;;;;;;;-141.97;100.00;47753.56;4977349;28;20445;-89
2022/11/28 07:32:33;;;;;;;26.27;11.00;;;;;;;-141.97;100.00;47680.53;4994748;28;20512;-88
2022/11/28 07:35:01;;;;;;;26.27;12.73;;;;;;;-141.97;100.00;47692.06;4994611;28;20863;-87
2022/11/28 07:37:26;;;;;;;29.60;12.77;;;;;;;-141.97;100.00;47830.47;4993067;28;20170;-88
2022/11/28 07:40:21;;;;;;;22.43;11.27;;;;;;;-141.97;100.00;47563.28;4995340;28;20534;-86
2022/11/28 07:42:57;;;;;;;24.23;11.87;;;;;;;-141.97;100.00;47628.63;4995245;28;20195;-88
2022/11/28 07:45:23;;;;;;;24.23;11.67;;;;;;;-141.97;100.00;47615.19;4978421;28;20510;-87
2022/11/28 07:47:48;;;;;;;27.27;12.57;;;;;;;-141.97;100.00;47551.75;4999465;28;20850;-86
2022/11/28 07:50:14;;;;;;;40.90;19.77;;;;;;;-141.97;100.00;47795.88;4994806;28;20254;-84
2022/11/28 07:52:39;;;;;;;32.63;16.27;;;;;;;-141.97;100.00;47759.34;5011674;28;20203;-85
2022/11/28 07:55:05;;;;;;;64.87;30.03;;;;;;;-141.97;100.00;47590.19;4998780;28;20259;-87
2022/11/28 07:57:30;;;;;;;47.57;21.40;;;;;;;-141.97;100.00;47767.03;4994799;28;20175;-86
2022/11/28 07:59:56;;;;;;;38.63;17.17;;;;;;;-141.97;100.00;47757.41;4973887;28;20209;-89
2022/11/28 08:02:21;;;;;;;27.60;13.73;;;;;;;-141.97;100.00;47703.59;4994500;28;20177;-86
2022/11/28 08:04:47;;;;;;;41.33;20.77;;;;;;;-141.97;100.00;47492.16;4994043;28;20222;-85
2022/11/28 08:07:12;;;;;;;38.00;19.43;;;;;;;-141.97;100.00;47768.94;4994764;28;20159;-86
2022/11/28 08:09:38;;;;;;;31.50;14.53;;;;;;;-141.97;100.00;47690.16;4993103;28;20186;-87
2022/11/28 08:12:03;;;;;;;30.97;14.63;;;;;;;-141.97;100.00;47599.81;4994109;28;20218;-85
2022/11/28 08:14:29;;;;;;;24.53;10.83;;;;;;;-141.97;100.00;47642.09;4976891;28;20305;-85
2022/11/28 08:16:54;;;;;;;23.27;9.83;;;;;;;-141.97;100.00;47542.16;4977337;28;20179;-85
2022/11/28 08:19:19;;;;;;;24.73;12.50;;;;;;;-141.97;100.00;47619.03;4993762;28;20176;-86
2022/11/28 08:21:45;;;;;;;25.30;12.33;;;;;;;-141.97;100.00;47765.09;4994346;28;20164;-86
2022/11/28 08:24:14;;;;;;;24.20;11.37;;;;;;;-141.97;100.00;47647.84;4994365;28;20164;-83
2022/11/28 08:26:39;;;;;;;25.23;12.20;;;;;;;-141.97;99.76;47745.88;4976026;28;20266;-87
2022/11/28 08:29:11;;;;;;;28.80;14.67;;;;;;;-141.97;99.06;47692.06;4993796;28;20426;-85
2022/11/28 08:31:38;;;;;;;24.13;10.90;;;;;;;-141.97;98.95;47715.13;4973072;28;20363;-86
2022/11/28 08:34:07;;;;;;;20.33;9.83;;;;;;;-141.97;97.90;47770.88;4974383;28;20974;-87
2022/11/28 08:36:32;;;;;;;16.30;7.80;;;;;;;-141.97;96.93;47738.19;4973152;28;20420;-87
2022/11/28 08:39:02;;;;;;;18.30;8.87;;;;;;;-141.97;96.83;47724.75;4974150;28;20801;-88
2022/11/28 08:41:28;;;;;;;29.47;15.07;;;;;;;-141.97;97.50;47768.94;4974968;28;20179;-85
2022/11/28 08:43:54;;;;;;;38.47;18.77;;;;;;;-141.97;97.34;47772.78;4974552;28;20932;-87
2022/11/28 08:46:22;;;;;;;19.20;9.33;;;;;;;-141.97;97.13;47544.06;4974837;28;20255;-86
2022/11/28 08:48:50;;;;;;;25.73;10.53;;;;;;;-141.97;98.47;47715.13;4973357;28;20183;-87
2022/11/28 08:51:18;;;;;;;16.40;7.60;;;;;;;-141.97;98.18;47757.41;4992517;28;20478;-88
2022/11/28 08:53:47;;;;;;;22.67;10.60;;;;;;;-141.97;97.45;47765.09;4998262;28;20403;-88
2022/11/28 08:56:12;;;;;;;22.87;9.90;;;;;;;-141.97;97.66;47767.03;5002308;28;20814;-86
2022/11/28 08:58:38;;;;;;;20.90;9.53;;;;;;;-141.97;97.47;47759.34;4976116;28;20918;-87
2022/11/28 09:01:13;;;;;;;22.60;10.90;;;;;;;-141.97;97.46;47786.25;4975148;28;20633;-86
2022/11/28 09:03:39;;;;;;;25.70;11.40;;;;;;;-141.97;97.29;47688.22;4975346;28;20427;-87
2022/11/28 09:06:04;;;;;;;25.87;11.07;;;;;;;-141.97;97.88;47747.81;4973348;28;20434;-86
2022/11/28 09:08:30;;;;;;;31.27;13.67;;;;;;;-141.97;97.53;47651.69;4973976;28;20171;-88
2022/11/28 09:10:55;;;;;;;29.03;11.20;;;;;;;-141.97;97.56;47726.66;4974269;28;20168;-86
2022/11/28 09:13:39;;;;;;;34.30;12.10;;;;;;;-141.97;99.31;47638.25;4973754;28;20192;-86
2022/11/28 09:16:05;;;;;;;33.90;13.20;;;;;;;-141.97;99.44;47788.19;4974886;28;20160;-86
2022/11/28 09:18:30;;;;;;;32.27;14.93;;;;;;;-141.97;99.65;47757.41;4980878;28;20784;-88
2022/11/28 09:21:01;;;;;;;48.90;21.57;;;;;;;-141.97;100.00;47628.63;4977000;28;20460;-87
2022/11/28 09:23:28;;;;;;;36.60;16.43;;;;;;;-141.97;100.00;47757.41;4995937;28;20183;-85
2022/11/28 09:25:54;;;;;;;32.93;14.33;;;;;;;-141.97;100.00;47678.63;4980083;28;20489;-86
2022/11/28 09:28:20;;;;;;;51.03;22.10;;;;;;;-141.97;100.00;47619.03;4973575;28;21063;-88
2022/11/28 09:30:46;;;;;;;56.70;24.30;;;;;;;-141.97;100.00;47613.25;4973671;28;20486;-86
2022/11/28 09:33:12;;;;;;;83.57;32.07;;;;;;;-141.97;100.00;47665.16;4992641;28;20373;-87
2022/11/28 09:35:38;;;;;;;66.13;28.10;;;;;;;-141.97;100.00;47765.09;4992892;28;20618;-86
2022/11/28 09:38:04;;;;;;;36.10;15.73;;;;;;;-141.97;100.00;47790.09;4974050;28;20632;-86
2022/11/28 09:40:40;;;;;;;36.93;17.03;;;;;;;-141.97;100.00;47572.91;4993672;28;20409;-84
2022/11/28 09:43:22;;;;;;;41.47;19.37;;;;;;;-141.97;100.00;47726.66;4992591;28;20182;-86
2022/11/28 09:45:52;;;;;;;43.00;18.30;;;;;;;-141.97;100.00;47663.22;4992547;28;20913;-87
2022/11/28 09:48:29;;;;;;;22.43;9.67;;;;;;;-141.97;99.55;47745.88;4994385;28;20417;-87
2022/11/28 09:51:03;;;;;;;37.27;17.67;;;;;;;-141.97;99.74;47755.50;4992969;28;20461;-86
2022/11/28 09:53:49;;;;;;;60.27;27.80;;;;;;;-141.97;99.84;47745.88;4993792;28;20413;-86
2022/11/28 09:56:18;;;;;;;49.93;23.10;;;;;;;-141.97;99.39;47605.56;4993105;28;20411;-87
2022/11/28 09:58:56;;;;;;;53.80;26.67;;;;;;;-141.97;99.38;47763.19;4993728;28;20489;-86
2022/11/28 10:01:34;;;;;;;55.10;26.57;;;;;;;-141.97;98.78;47730.50;4993036;28;20460;-88
2022/11/28 10:04:15;;;;;;;125.57;52.90;;;;;;;-141.97;97.95;47663.22;4994892;28;20407;-88
2022/11/28 10:06:52;;;;;;;61.90;32.87;;;;;;;-141.97;97.69;47730.50;4996173;28;20402;-88
2022/11/28 10:09:45;;;;;;;67.90;32.03;;;;;;;-141.97;97.87;47732.44;4993983;28;20445;-87
2022/11/28 10:12:32;;;;;;;46.17;23.70;;;;;;;-141.97;96.29;47742.03;4995249;28;20457;-88
2022/11/28 10:15:06;;;;;;;28.30;14.23;;;;;;;-141.97;96.43;47724.75;5002322;28;20476;-89
2022/11/28 10:17:34;;;;;;;35.33;17.03;;;;;;;-141.97;96.39;47747.81;4987699;28;20418;-83
2022/11/28 10:20:15;;;;;;;185.20;54.03;;;;;;;-141.97;95.04;47707.44;4971618;28;20825;-85
2022/11/28 10:22:49;;;;;;;39.53;16.50;;;;;;;-141.97;94.99;47713.22;4973483;28;20403;-85
2022/11/28 10:25:21;;;;;;;28.70;13.17;;;;;;;-141.97;95.42;47747.81;4977829;28;20921;-84
2022/11/28 10:27:49;;;;;;;46.83;20.13;;;;;;;-141.97;95.84;47718.97;4992501;28;20413;-85
2022/11/28 10:30:20;;;;;;;69.70;28.20;;;;;;;-141.97;95.89;47780.47;4991929;28;20430;-84
2022/11/28 10:32:54;;;;;;;84.50;32.33;;;;;;;-141.97;96.28;47734.34;4992447;28;20478;-85
2022/11/28 10:35:24;;;;;;;31.87;15.73;;;;;;;-141.97;95.85;47734.34;4991755;28;20951;-83
2022/11/28 10:37:51;;;;;;;49.33;26.83;;;;;;;-141.97;96.86;47749.72;4992382;28;20410;-85
2022/11/28 10:40:47;;;;;;;29.37;14.80;;;;;;;-141.97;96.26;47734.34;4975163;28;20529;-84
2022/11/28 10:43:40;;;;;;;21.33;11.53;;;;;;;-141.97;94.93;47742.03;4992279;28;20410;-84
2022/11/28 10:46:08;;;;;;;26.23;13.17;;;;;;;-141.97;95.76;47734.34;4992238;28;20957;-84
2022/11/28 10:48:33;;;;;;;31.90;15.23;;;;;;;-141.97;96.05;47705.53;4991950;28;20407;-84
2022/11/28 10:51:17;;;;;;;23.90;11.70;;;;;;;-141.97;96.09;47701.69;4997139;28;20406;-85
2022/11/28 10:54:21;;;;;;;29.60;13.70;;;;;;;-141.97;96.76;47720.91;5003224;28;20172;-84
2022/11/28 10:57:18;;;;;;;37.10;17.03;;;;;;;-141.97;96.35;47711.28;5002745;28;20407;-84
2022/11/28 11:00:12;;;;;;;56.13;25.63;;;;;;;-141.97;94.96;47745.88;4947618;29;20429;-85
2022/11/28 11:02:53;;;;;;;46.60;22.97;;;;;;;-141.97;94.21;47742.03;4880064;29;20423;-86
2022/11/28 11:05:25;;;;;;;37.20;17.77;;;;;;;-141.97;92.02;47734.34;4882007;29;20423;-85
2022/11/28 11:07:58;;;;;;;26.60;14.27;;;;;;;-141.97;91.53;47799.72;4881341;29;20429;-85
2022/11/28 11:10:35;;;;;;;32.70;16.60;;;;;;;-141.97;90.22;47749.72;4879842;29;20432;-85
2022/11/28 11:13:13;;;;;;;24.30;12.63;;;;;;;-141.97;90.69;47776.63;4883628;29;20540;-85
2022/11/28 11:15:39;;;;;;;35.60;16.83;;;;;;;-141.97;90.62;47749.72;5083961;23;20497;-84
2022/11/28 11:18:20;;;;;;;46.70;26.47;;;;;;;-141.97;91.00;47736.28;5001555;28;20410;-85